sensor_id;sensor_type;location;lat;lon;timestamp;temperature;humidity
19898;DHT22;10111;50.814;4.572;2022-08-21T00:00:17;16.30;99.90
19898;DHT22;10111;50.814;4.572;2022-08-21T00:02:50;16.00;99.90
19898;DHT22;10111;50.814;4.572;2022-08-21T00:05:17;16.00;99.90
19898;DHT22;10111;50.814;4.572;2022-08-21T00:07:43;15.90;99.90
19898;DHT22;10111;50.814;4.572;2022-08-21T00:10:10;15.90;99.90
19898;DHT22;10111;50.814;4.572;2022-08-21T00:12:36;15.90;99.90
19898;DHT22;10111;50.814;4.572;2022-08-21T00:15:03;15.90;99.90
19898;DHT22;10111;50.814;4.572;2022-08-21T00:17:28;15.80;99.90
19898;DHT22;10111;50.814;4.572;2022-08-21T00:19:54;15.90;99.90
19898;DHT22;10111;50.814;4.572;2022-08-21T00:22:20;15.70;99.90
19898;DHT22;10111;50.814;4.572;2022-08-21T00:24:45;15.80;99.90
19898;DHT22;10111;50.814;4.572;2022-08-21T00:27:11;15.70;99.90
19898;DHT22;10111;50.814;4.572;2022-08-21T00:29:36;15.70;99.90
19898;DHT22;10111;50.814;4.572;2022-08-21T00:32:02;15.90;99.90
19898;DHT22;10111;50.814;4.572;2022-08-21T00:34:28;15.60;99.90
19898;DHT22;10111;50.814;4.572;2022-08-21T00:36:53;15.60;99.90
19898;DHT22;10111;50.814;4.572;2022-08-21T00:39:19;15.60;99.90
19898;DHT22;10111;50.814;4.572;2022-08-21T00:41:45;15.60;99.90
19898;DHT22;10111;50.814;4.572;2022-08-21T00:44:12;15.60;99.90
19898;DHT22;10111;50.814;4.572;2022-08-21T00:46:39;15.60;99.90
19898;DHT22;10111;50.814;4.572;2022-08-21T00:49:06;15.50;99.90
19898;DHT22;10111;50.814;4.572;2022-08-21T00:51:59;15.50;99.90
19898;DHT22;10111;50.814;4.572;2022-08-21T00:54:27;15.50;99.90
19898;DHT22;10111;50.814;4.572;2022-08-21T00:56:59;15.40;99.90
19898;DHT22;10111;50.814;4.572;2022-08-21T00:59:26;15.40;99.90
19898;DHT22;10111;50.814;4.572;2022-08-21T01:01:53;15.40;99.90
19898;DHT22;10111;50.814;4.572;2022-08-21T01:04:20;15.40;99.90
19898;DHT22;10111;50.814;4.572;2022-08-21T01:06:46;15.30;99.90
19898;DHT22;10111;50.814;4.572;2022-08-21T01:09:12;15.20;99.90
19898;DHT22;10111;50.814;4.572;2022-08-21T01:11:39;15.20;99.90
19898;DHT22;10111;50.814;4.572;2022-08-21T01:14:05;15.20;99.90
19898;DHT22;10111;50.814;4.572;2022-08-21T01:16:31;15.10;99.90
19898;DHT22;10111;50.814;4.572;2022-08-21T01:18:58;15.20;99.90
19898;DHT22;10111;50.814;4.572;2022-08-21T01:21:26;15.20;99.90
19898;DHT22;10111;50.814;4.572;2022-08-21T01:23:53;15.00;99.90
19898;DHT22;10111;50.814;4.572;2022-08-21T01:26:24;14.90;99.90
19898;DHT22;10111;50.814;4.572;2022-08-21T01:29:00;14.90;99.90
19898;DHT22;10111;50.814;4.572;2022-08-21T01:31:27;14.80;99.90
19898;DHT22;10111;50.814;4.572;2022-08-21T01:33:55;14.80;99.90
19898;DHT22;10111;50.814;4.572;2022-08-21T01:36:22;14.80;99.90
19898;DHT22;10111;50.814;4.572;2022-08-21T01:38:48;14.80;99.90
19898;DHT22;10111;50.814;4.572;2022-08-21T01:41:14;14.80;99.90
19898;DHT22;10111;50.814;4.572;2022-08-21T01:43:41;14.80;99.90
19898;DHT22;10111;50.814;4.572;2022-08-21T01:46:07;14.80;99.90
19898;DHT22;10111;50.814;4.572;2022-08-21T01:48:33;14.70;99.90
19898;DHT22;10111;50.814;4.572;2022-08-21T01:50:59;14.70;99.90
19898;DHT22;10111;50.814;4.572;2022-08-21T01:53:25;14.60;99.90
19898;DHT22;10111;50.814;4.572;2022-08-21T01:55:50;14.60;99.90
19898;DHT22;10111;50.814;4.572;2022-08-21T01:58:16;14.50;99.90
19898;DHT22;10111;50.814;4.572;2022-08-21T02:00:42;14.50;99.90
19898;DHT22;10111;50.814;4.572;2022-08-21T02:03:08;14.50;99.90
19898;DHT22;10111;50.814;4.572;2022-08-21T02:05:33;14.50;99.90
19898;DHT22;10111;50.814;4.572;2022-08-21T02:07:59;14.50;99.90
19898;DHT22;10111;50.814;4.572;2022-08-21T02:10:28;14.70;99.90
19898;DHT22;10111;50.814;4.572;2022-08-21T02:12:55;14.50;99.90
19898;DHT22;10111;50.814;4.572;2022-08-21T02:15:21;14.50;99.90
19898;DHT22;10111;50.814;4.572;2022-08-21T02:17:51;14.50;99.90
19898;DHT22;10111;50.814;4.572;2022-08-21T02:20:25;14.50;99.90
19898;DHT22;10111;50.814;4.572;2022-08-21T02:22:52;14.40;99.90
19898;DHT22;10111;50.814;4.572;2022-08-21T02:25:19;14.30;99.90
19898;DHT22;10111;50.814;4.572;2022-08-21T02:27:46;14.30;99.90
19898;DHT22;10111;50.814;4.572;2022-08-21T02:30:23;14.40;99.90
19898;DHT22;10111;50.814;4.572;2022-08-21T02:32:49;14.40;99.90
19898;DHT22;10111;50.814;4.572;2022-08-21T02:35:15;14.30;99.90
19898;DHT22;10111;50.814;4.572;2022-08-21T02:37:58;14.20;99.90
19898;DHT22;10111;50.814;4.572;2022-08-21T02:40:28;14.20;99.90
19898;DHT22;10111;50.814;4.572;2022-08-21T02:42:56;14.20;99.90
19898;DHT22;10111;50.814;4.572;2022-08-21T02:45:22;14.20;99.90
19898;DHT22;10111;50.814;4.572;2022-08-21T02:47:56;14.20;99.90
19898;DHT22;10111;50.814;4.572;2022-08-21T02:50:28;14.10;99.90
19898;DHT22;10111;50.814;4.572;2022-08-21T02:52:54;14.20;99.90
19898;DHT22;10111;50.814;4.572;2022-08-21T02:55:21;14.10;99.90
19898;DHT22;10111;50.814;4.572;2022-08-21T02:57:48;14.10;99.90
19898;DHT22;10111;50.814;4.572;2022-08-21T03:00:15;14.20;99.90
19898;DHT22;10111;50.814;4.572;2022-08-21T03:02:41;14.20;99.90
19898;DHT22;10111;50.814;4.572;2022-08-21T03:05:08;14.20;99.90
19898;DHT22;10111;50.814;4.572;2022-08-21T03:07:35;14.20;99.90
19898;DHT22;10111;50.814;4.572;2022-08-21T03:10:01;14.20;99.90
19898;DHT22;10111;50.814;4.572;2022-08-21T03:12:26;14.20;99.90
19898;DHT22;10111;50.814;4.572;2022-08-21T03:14:52;14.20;99.90
19898;DHT22;10111;50.814;4.572;2022-08-21T03:17:18;14.20;99.90
19898;DHT22;10111;50.814;4.572;2022-08-21T03:19:43;14.20;99.90
19898;DHT22;10111;50.814;4.572;2022-08-21T03:22:09;14.20;99.90
19898;DHT22;10111;50.814;4.572;2022-08-21T03:24:34;14.20;99.90
19898;DHT22;10111;50.814;4.572;2022-08-21T03:27:00;14.20;99.90
19898;DHT22;10111;50.814;4.572;2022-08-21T03:29:26;14.10;99.90
19898;DHT22;10111;50.814;4.572;2022-08-21T03:31:52;14.20;99.90
19898;DHT22;10111;50.814;4.572;2022-08-21T03:34:21;14.00;99.90
19898;DHT22;10111;50.814;4.572;2022-08-21T03:36:47;13.90;99.90
19898;DHT22;10111;50.814;4.572;2022-08-21T03:39:15;13.90;99.90
19898;DHT22;10111;50.814;4.572;2022-08-21T03:41:40;13.90;99.90
19898;DHT22;10111;50.814;4.572;2022-08-21T03:44:06;13.90;99.90
19898;DHT22;10111;50.814;4.572;2022-08-21T03:46:32;13.90;99.90
19898;DHT22;10111;50.814;4.572;2022-08-21T03:48:58;13.90;99.90
19898;DHT22;10111;50.814;4.572;2022-08-21T03:51:23;13.90;99.90
19898;DHT22;10111;50.814;4.572;2022-08-21T03:53:49;13.80;99.90
19898;DHT22;10111;50.814;4.572;2022-08-21T03:56:14;14.00;99.90
19898;DHT22;10111;50.814;4.572;2022-08-21T03:58:43;14.00;99.90
19898;DHT22;10111;50.814;4.572;2022-08-21T04:01:09;13.80;99.90
19898;DHT22;10111;50.814;4.572;2022-08-21T04:03:36;13.90;99.90
19898;DHT22;10111;50.814;4.572;2022-08-21T04:06:02;13.90;99.90
19898;DHT22;10111;50.814;4.572;2022-08-21T04:08:28;13.80;99.90
19898;DHT22;10111;50.814;4.572;2022-08-21T04:10:57;13.80;99.90
19898;DHT22;10111;50.814;4.572;2022-08-21T04:13:23;13.80;99.90
19898;DHT22;10111;50.814;4.572;2022-08-21T04:15:49;13.80;99.90
19898;DHT22;10111;50.814;4.572;2022-08-21T04:18:15;13.70;99.90
19898;DHT22;10111;50.814;4.572;2022-08-21T04:20:42;13.80;99.90
19898;DHT22;10111;50.814;4.572;2022-08-21T04:23:09;13.70;99.90
19898;DHT22;10111;50.814;4.572;2022-08-21T04:25:34;13.90;99.90
19898;DHT22;10111;50.814;4.572;2022-08-21T04:28:01;13.80;99.90
19898;DHT22;10111;50.814;4.572;2022-08-21T04:30:27;13.70;99.90
19898;DHT22;10111;50.814;4.572;2022-08-21T04:32:53;13.70;99.90
19898;DHT22;10111;50.814;4.572;2022-08-21T04:35:21;13.70;99.90
19898;DHT22;10111;50.814;4.572;2022-08-21T04:37:47;14.00;99.90
19898;DHT22;10111;50.814;4.572;2022-08-21T04:40:16;13.70;99.90
19898;DHT22;10111;50.814;4.572;2022-08-21T04:43:03;13.70;99.90
19898;DHT22;10111;50.814;4.572;2022-08-21T04:45:42;13.70;99.90
19898;DHT22;10111;50.814;4.572;2022-08-21T04:48:09;13.70;99.90
19898;DHT22;10111;50.814;4.572;2022-08-21T04:50:55;13.80;99.90
19898;DHT22;10111;50.814;4.572;2022-08-21T04:53:47;13.70;99.90
19898;DHT22;10111;50.814;4.572;2022-08-21T04:56:26;13.70;99.90
19898;DHT22;10111;50.814;4.572;2022-08-21T04:58:55;13.70;99.90
19898;DHT22;10111;50.814;4.572;2022-08-21T05:01:24;13.50;99.90
19898;DHT22;10111;50.814;4.572;2022-08-21T05:03:55;13.50;99.90
19898;DHT22;10111;50.814;4.572;2022-08-21T05:06:22;13.70;99.90
19898;DHT22;10111;50.814;4.572;2022-08-21T05:08:50;13.70;99.90
19898;DHT22;10111;50.814;4.572;2022-08-21T05:11:17;13.90;99.90
19898;DHT22;10111;50.814;4.572;2022-08-21T05:13:44;13.80;99.90
19898;DHT22;10111;50.814;4.572;2022-08-21T05:16:09;13.80;99.90
19898;DHT22;10111;50.814;4.572;2022-08-21T05:18:35;13.90;99.90
19898;DHT22;10111;50.814;4.572;2022-08-21T05:21:00;13.90;99.90
19898;DHT22;10111;50.814;4.572;2022-08-21T05:23:26;13.90;99.90
19898;DHT22;10111;50.814;4.572;2022-08-21T05:25:52;14.00;99.90
19898;DHT22;10111;50.814;4.572;2022-08-21T05:28:19;14.00;99.90
19898;DHT22;10111;50.814;4.572;2022-08-21T05:30:45;14.10;99.90
19898;DHT22;10111;50.814;4.572;2022-08-21T05:33:10;14.10;99.90
19898;DHT22;10111;50.814;4.572;2022-08-21T05:35:37;14.20;99.90
19898;DHT22;10111;50.814;4.572;2022-08-21T05:38:04;14.30;99.90
19898;DHT22;10111;50.814;4.572;2022-08-21T05:40:30;14.50;99.90
19898;DHT22;10111;50.814;4.572;2022-08-21T05:42:56;14.50;99.90
19898;DHT22;10111;50.814;4.572;2022-08-21T05:45:28;14.60;99.90
19898;DHT22;10111;50.814;4.572;2022-08-21T05:47:54;14.70;99.90
19898;DHT22;10111;50.814;4.572;2022-08-21T05:50:20;14.80;99.90
19898;DHT22;10111;50.814;4.572;2022-08-21T05:52:46;14.90;99.90
19898;DHT22;10111;50.814;4.572;2022-08-21T05:55:12;15.00;99.90
19898;DHT22;10111;50.814;4.572;2022-08-21T05:57:37;15.10;99.90
19898;DHT22;10111;50.814;4.572;2022-08-21T06:00:07;15.40;99.90
19898;DHT22;10111;50.814;4.572;2022-08-21T06:02:35;15.30;99.90
19898;DHT22;10111;50.814;4.572;2022-08-21T06:05:01;15.40;99.90
19898;DHT22;10111;50.814;4.572;2022-08-21T06:07:26;15.50;99.90
19898;DHT22;10111;50.814;4.572;2022-08-21T06:09:52;15.60;99.90
19898;DHT22;10111;50.814;4.572;2022-08-21T06:12:18;15.70;99.90
19898;DHT22;10111;50.814;4.572;2022-08-21T06:14:43;15.90;99.90
19898;DHT22;10111;50.814;4.572;2022-08-21T06:17:11;16.00;99.90
19898;DHT22;10111;50.814;4.572;2022-08-21T06:19:37;16.00;99.90
19898;DHT22;10111;50.814;4.572;2022-08-21T06:22:03;16.10;99.90
19898;DHT22;10111;50.814;4.572;2022-08-21T06:24:29;16.30;99.90
19898;DHT22;10111;50.814;4.572;2022-08-21T06:26:55;16.40;99.90
19898;DHT22;10111;50.814;4.572;2022-08-21T06:29:22;16.40;99.90
19898;DHT22;10111;50.814;4.572;2022-08-21T06:31:50;16.50;99.90
19898;DHT22;10111;50.814;4.572;2022-08-21T06:34:17;16.70;99.90
19898;DHT22;10111;50.814;4.572;2022-08-21T06:36:43;16.90;99.90
19898;DHT22;10111;50.814;4.572;2022-08-21T06:39:09;17.00;99.90
19898;DHT22;10111;50.814;4.572;2022-08-21T06:41:35;17.10;99.90
19898;DHT22;10111;50.814;4.572;2022-08-21T06:44:00;17.20;99.90
19898;DHT22;10111;50.814;4.572;2022-08-21T06:46:28;17.20;99.90
19898;DHT22;10111;50.814;4.572;2022-08-21T06:48:54;17.30;99.90
19898;DHT22;10111;50.814;4.572;2022-08-21T06:51:20;17.30;99.90
19898;DHT22;10111;50.814;4.572;2022-08-21T06:53:46;17.50;99.90
19898;DHT22;10111;50.814;4.572;2022-08-21T06:56:11;17.60;99.90
19898;DHT22;10111;50.814;4.572;2022-08-21T06:58:38;17.70;99.90
19898;DHT22;10111;50.814;4.572;2022-08-21T07:01:04;17.70;99.90
19898;DHT22;10111;50.814;4.572;2022-08-21T07:03:35;17.80;99.90
19898;DHT22;10111;50.814;4.572;2022-08-21T07:06:04;17.80;99.90
19898;DHT22;10111;50.814;4.572;2022-08-21T07:08:30;17.90;99.90
19898;DHT22;10111;50.814;4.572;2022-08-21T07:10:58;18.10;99.90
19898;DHT22;10111;50.814;4.572;2022-08-21T07:13:24;18.10;99.90
19898;DHT22;10111;50.814;4.572;2022-08-21T07:15:50;18.30;99.90
19898;DHT22;10111;50.814;4.572;2022-08-21T07:18:16;18.30;99.90
19898;DHT22;10111;50.814;4.572;2022-08-21T07:20:42;18.40;99.90
19898;DHT22;10111;50.814;4.572;2022-08-21T07:23:11;18.60;99.90
19898;DHT22;10111;50.814;4.572;2022-08-21T07:25:38;18.80;99.90
19898;DHT22;10111;50.814;4.572;2022-08-21T07:28:04;19.00;99.90
19898;DHT22;10111;50.814;4.572;2022-08-21T07:30:30;19.30;99.90
19898;DHT22;10111;50.814;4.572;2022-08-21T07:32:56;19.40;99.90
19898;DHT22;10111;50.814;4.572;2022-08-21T07:35:22;19.50;99.90
19898;DHT22;10111;50.814;4.572;2022-08-21T07:37:48;19.60;99.90
19898;DHT22;10111;50.814;4.572;2022-08-21T07:40:14;19.70;99.90
19898;DHT22;10111;50.814;4.572;2022-08-21T07:42:45;19.80;99.90
19898;DHT22;10111;50.814;4.572;2022-08-21T07:45:12;19.80;99.90
19898;DHT22;10111;50.814;4.572;2022-08-21T07:47:38;19.70;99.90
19898;DHT22;10111;50.814;4.572;2022-08-21T07:50:05;19.70;99.90
19898;DHT22;10111;50.814;4.572;2022-08-21T07:52:32;19.70;99.90
19898;DHT22;10111;50.814;4.572;2022-08-21T07:54:58;19.90;99.90
19898;DHT22;10111;50.814;4.572;2022-08-21T07:57:23;20.00;99.90
19898;DHT22;10111;50.814;4.572;2022-08-21T07:59:49;20.30;99.90
19898;DHT22;10111;50.814;4.572;2022-08-21T08:02:23;20.60;99.90
19898;DHT22;10111;50.814;4.572;2022-08-21T08:04:49;20.80;99.90
19898;DHT22;10111;50.814;4.572;2022-08-21T08:07:15;20.90;99.90
19898;DHT22;10111;50.814;4.572;2022-08-21T08:09:41;21.00;99.90
19898;DHT22;10111;50.814;4.572;2022-08-21T08:12:07;21.10;99.90
19898;DHT22;10111;50.814;4.572;2022-08-21T08:14:32;21.10;99.90
19898;DHT22;10111;50.814;4.572;2022-08-21T08:16:59;21.10;99.90
19898;DHT22;10111;50.814;4.572;2022-08-21T08:19:24;21.00;99.90
19898;DHT22;10111;50.814;4.572;2022-08-21T08:21:50;21.20;99.90
19898;DHT22;10111;50.814;4.572;2022-08-21T08:24:16;21.30;99.90
19898;DHT22;10111;50.814;4.572;2022-08-21T08:26:41;21.30;99.90
19898;DHT22;10111;50.814;4.572;2022-08-21T08:29:07;21.30;99.90
19898;DHT22;10111;50.814;4.572;2022-08-21T08:31:32;21.40;99.90
19898;DHT22;10111;50.814;4.572;2022-08-21T08:33:59;21.40;99.90
19898;DHT22;10111;50.814;4.572;2022-08-21T08:36:33;21.40;99.90
19898;DHT22;10111;50.814;4.572;2022-08-21T08:39:00;21.30;99.90
19898;DHT22;10111;50.814;4.572;2022-08-21T08:41:26;21.30;99.90
19898;DHT22;10111;50.814;4.572;2022-08-21T08:43:54;21.20;99.90
19898;DHT22;10111;50.814;4.572;2022-08-21T08:46:41;21.30;99.90
19898;DHT22;10111;50.814;4.572;2022-08-21T08:52:17;21.50;99.90
19898;DHT22;10111;50.814;4.572;2022-08-21T08:54:52;21.70;99.90
19898;DHT22;10111;50.814;4.572;2022-08-21T08:57:24;21.80;99.90
19898;DHT22;10111;50.814;4.572;2022-08-21T08:59:53;21.80;99.90
19898;DHT22;10111;50.814;4.572;2022-08-21T09:02:20;21.90;99.90
19898;DHT22;10111;50.814;4.572;2022-08-21T09:04:49;21.80;99.90
19898;DHT22;10111;50.814;4.572;2022-08-21T09:07:55;21.90;99.90
19898;DHT22;10111;50.814;4.572;2022-08-21T09:10:30;22.10;99.90
19898;DHT22;10111;50.814;4.572;2022-08-21T09:21:30;22.80;99.90
19898;DHT22;10111;50.814;4.572;2022-08-21T09:26:35;23.20;99.90
19898;DHT22;10111;50.814;4.572;2022-08-21T09:29:05;23.30;99.90
19898;DHT22;10111;50.814;4.572;2022-08-21T09:31:35;23.30;99.90
19898;DHT22;10111;50.814;4.572;2022-08-21T09:34:08;23.30;99.90
19898;DHT22;10111;50.814;4.572;2022-08-21T09:36:45;23.20;99.90
19898;DHT22;10111;50.814;4.572;2022-08-21T09:39:13;23.30;99.90
19898;DHT22;10111;50.814;4.572;2022-08-21T09:41:39;23.30;99.90
19898;DHT22;10111;50.814;4.572;2022-08-21T09:44:08;23.30;99.90
19898;DHT22;10111;50.814;4.572;2022-08-21T09:46:34;23.40;99.90
19898;DHT22;10111;50.814;4.572;2022-08-21T09:49:03;23.40;99.90
19898;DHT22;10111;50.814;4.572;2022-08-21T09:51:32;23.50;99.90
19898;DHT22;10111;50.814;4.572;2022-08-21T09:54:12;23.70;99.90
19898;DHT22;10111;50.814;4.572;2022-08-21T09:56:52;23.90;99.90
19898;DHT22;10111;50.814;4.572;2022-08-21T09:59:37;24.00;99.90
19898;DHT22;10111;50.814;4.572;2022-08-21T10:04:52;23.90;99.90
19898;DHT22;10111;50.814;4.572;2022-08-21T10:07:21;23.90;99.90
19898;DHT22;10111;50.814;4.572;2022-08-21T10:09:58;23.90;99.90
19898;DHT22;10111;50.814;4.572;2022-08-21T10:12:31;24.00;99.90
19898;DHT22;10111;50.814;4.572;2022-08-21T10:15:16;23.80;99.90
19898;DHT22;10111;50.814;4.572;2022-08-21T10:18:04;23.70;99.90
19898;DHT22;10111;50.814;4.572;2022-08-21T10:20:44;23.50;99.90
19898;DHT22;10111;50.814;4.572;2022-08-21T10:26:08;23.40;99.90
19898;DHT22;10111;50.814;4.572;2022-08-21T10:39:36;23.20;99.90
19898;DHT22;10111;50.814;4.572;2022-08-21T10:47:28;23.20;99.90
19898;DHT22;10111;50.814;4.572;2022-08-21T10:53:19;23.20;99.90
19898;DHT22;10111;50.814;4.572;2022-08-21T10:55:56;23.40;99.90
19898;DHT22;10111;50.814;4.572;2022-08-21T10:58:59;23.50;99.90
19898;DHT22;10111;50.814;4.572;2022-08-21T11:01:44;23.50;99.90
19898;DHT22;10111;50.814;4.572;2022-08-21T11:04:20;23.50;99.90
19898;DHT22;10111;50.814;4.572;2022-08-21T11:07:01;23.50;99.90
19898;DHT22;10111;50.814;4.572;2022-08-21T11:09:27;23.60;99.90
19898;DHT22;10111;50.814;4.572;2022-08-21T11:14:28;23.60;99.90
19898;DHT22;10111;50.814;4.572;2022-08-21T11:17:05;23.70;99.90
19898;DHT22;10111;50.814;4.572;2022-08-21T11:19:48;23.60;99.90
19898;DHT22;10111;50.814;4.572;2022-08-21T11:22:19;23.50;99.90
19898;DHT22;10111;50.814;4.572;2022-08-21T11:25:00;23.50;99.90
19898;DHT22;10111;50.814;4.572;2022-08-21T11:27:46;23.70;99.90
19898;DHT22;10111;50.814;4.572;2022-08-21T11:30:14;23.80;99.90
19898;DHT22;10111;50.814;4.572;2022-08-21T11:33:01;23.90;99.90
19898;DHT22;10111;50.814;4.572;2022-08-21T11:35:51;24.00;99.90
19898;DHT22;10111;50.814;4.572;2022-08-21T11:41:13;24.00;99.90
19898;DHT22;10111;50.814;4.572;2022-08-21T11:43:45;24.00;99.90
19898;DHT22;10111;50.814;4.572;2022-08-21T11:46:20;24.10;99.90
19898;DHT22;10111;50.814;4.572;2022-08-21T11:52:10;23.90;99.90
19898;DHT22;10111;50.814;4.572;2022-08-21T11:57:06;23.70;99.90
19898;DHT22;10111;50.814;4.572;2022-08-21T11:59:53;23.60;99.90
19898;DHT22;10111;50.814;4.572;2022-08-21T12:02:24;23.50;99.90
19898;DHT22;10111;50.814;4.572;2022-08-21T12:05:04;23.60;99.90
19898;DHT22;10111;50.814;4.572;2022-08-21T12:07:37;23.60;99.90
19898;DHT22;10111;50.814;4.572;2022-08-21T12:10:07;23.70;99.90
19898;DHT22;10111;50.814;4.572;2022-08-21T12:12:36;23.70;99.90
19898;DHT22;10111;50.814;4.572;2022-08-21T12:15:23;23.90;99.90
19898;DHT22;10111;50.814;4.572;2022-08-21T12:26:03;24.10;99.90
19898;DHT22;10111;50.814;4.572;2022-08-21T12:28:34;24.10;99.90
19898;DHT22;10111;50.814;4.572;2022-08-21T12:31:00;24.10;99.90
19898;DHT22;10111;50.814;4.572;2022-08-21T12:36:13;24.20;99.90
19898;DHT22;10111;50.814;4.572;2022-08-21T12:39:00;24.40;99.90
19898;DHT22;10111;50.814;4.572;2022-08-21T12:41:30;24.60;99.90
19898;DHT22;10111;50.814;4.572;2022-08-21T12:44:10;24.80;99.90
19898;DHT22;10111;50.814;4.572;2022-08-21T12:46:46;24.80;99.90
19898;DHT22;10111;50.814;4.572;2022-08-21T12:49:28;24.80;99.90
19898;DHT22;10111;50.814;4.572;2022-08-21T12:52:16;24.80;99.90
19898;DHT22;10111;50.814;4.572;2022-08-21T12:54:45;24.80;99.90
19898;DHT22;10111;50.814;4.572;2022-08-21T12:57:20;24.80;99.90
19898;DHT22;10111;50.814;4.572;2022-08-21T12:59:46;24.80;99.90
19898;DHT22;10111;50.814;4.572;2022-08-21T13:02:19;24.80;99.90
19898;DHT22;10111;50.814;4.572;2022-08-21T13:04:47;24.80;99.90
19898;DHT22;10111;50.814;4.572;2022-08-21T13:07:20;24.80;99.90
19898;DHT22;10111;50.814;4.572;2022-08-21T13:10:06;24.70;99.90
19898;DHT22;10111;50.814;4.572;2022-08-21T13:12:33;24.60;99.90
19898;DHT22;10111;50.814;4.572;2022-08-21T13:15:04;24.60;99.90
19898;DHT22;10111;50.814;4.572;2022-08-21T13:17:32;24.60;99.90
19898;DHT22;10111;50.814;4.572;2022-08-21T13:20:03;24.50;99.90
19898;DHT22;10111;50.814;4.572;2022-08-21T13:22:29;24.50;99.90
19898;DHT22;10111;50.814;4.572;2022-08-21T13:24:55;24.60;99.90
19898;DHT22;10111;50.814;4.572;2022-08-21T13:27:26;24.70;99.90
19898;DHT22;10111;50.814;4.572;2022-08-21T13:30:27;25.00;99.90
19898;DHT22;10111;50.814;4.572;2022-08-21T13:33:02;25.00;99.90
19898;DHT22;10111;50.814;4.572;2022-08-21T13:35:52;24.80;99.90
19898;DHT22;10111;50.814;4.572;2022-08-21T13:38:26;24.90;99.90
19898;DHT22;10111;50.814;4.572;2022-08-21T13:41:08;25.00;99.90
19898;DHT22;10111;50.814;4.572;2022-08-21T13:43:37;25.00;99.90
19898;DHT22;10111;50.814;4.572;2022-08-21T13:46:09;24.80;99.90
19898;DHT22;10111;50.814;4.572;2022-08-21T13:48:36;24.70;99.90
19898;DHT22;10111;50.814;4.572;2022-08-21T13:51:02;24.60;99.90
19898;DHT22;10111;50.814;4.572;2022-08-21T13:53:43;24.60;99.90
19898;DHT22;10111;50.814;4.572;2022-08-21T13:56:22;24.60;99.90
19898;DHT22;10111;50.814;4.572;2022-08-21T13:58:48;24.60;99.90
19898;DHT22;10111;50.814;4.572;2022-08-21T14:03:53;24.60;99.90
19898;DHT22;10111;50.814;4.572;2022-08-21T14:06:26;24.60;99.90
19898;DHT22;10111;50.814;4.572;2022-08-21T14:09:11;24.60;99.90
19898;DHT22;10111;50.814;4.572;2022-08-21T14:11:38;24.60;99.90
19898;DHT22;10111;50.814;4.572;2022-08-21T14:14:21;24.60;99.90
19898;DHT22;10111;50.814;4.572;2022-08-21T14:17:02;24.70;99.90
19898;DHT22;10111;50.814;4.572;2022-08-21T14:19:40;24.80;99.90
19898;DHT22;10111;50.814;4.572;2022-08-21T14:25:09;24.80;99.90
19898;DHT22;10111;50.814;4.572;2022-08-21T14:28:03;24.80;99.90
19898;DHT22;10111;50.814;4.572;2022-08-21T14:32:52;25.10;99.90
19898;DHT22;10111;50.814;4.572;2022-08-21T14:35:19;25.10;99.90
19898;DHT22;10111;50.814;4.572;2022-08-21T14:37:47;25.00;99.90
19898;DHT22;10111;50.814;4.572;2022-08-21T14:40:12;25.00;99.90
19898;DHT22;10111;50.814;4.572;2022-08-21T14:42:40;24.90;99.90
19898;DHT22;10111;50.814;4.572;2022-08-21T14:45:18;24.90;99.90
19898;DHT22;10111;50.814;4.572;2022-08-21T14:47:45;24.80;99.90
19898;DHT22;10111;50.814;4.572;2022-08-21T14:50:12;24.90;99.90
19898;DHT22;10111;50.814;4.572;2022-08-21T14:52:38;25.00;99.90
19898;DHT22;10111;50.814;4.572;2022-08-21T14:55:05;25.00;99.90
19898;DHT22;10111;50.814;4.572;2022-08-21T14:57:32;25.00;99.90
19898;DHT22;10111;50.814;4.572;2022-08-21T14:59:58;24.90;99.90
19898;DHT22;10111;50.814;4.572;2022-08-21T15:02:25;24.90;99.90
19898;DHT22;10111;50.814;4.572;2022-08-21T15:04:50;24.80;99.90
19898;DHT22;10111;50.814;4.572;2022-08-21T15:07:16;24.80;99.90
19898;DHT22;10111;50.814;4.572;2022-08-21T15:09:42;24.80;99.90
19898;DHT22;10111;50.814;4.572;2022-08-21T15:12:07;24.90;99.90
19898;DHT22;10111;50.814;4.572;2022-08-21T15:14:36;24.80;99.90
19898;DHT22;10111;50.814;4.572;2022-08-21T15:17:05;24.90;99.90
19898;DHT22;10111;50.814;4.572;2022-08-21T15:19:30;25.00;99.90
19898;DHT22;10111;50.814;4.572;2022-08-21T15:21:56;25.10;99.90
19898;DHT22;10111;50.814;4.572;2022-08-21T15:24:22;25.10;99.90
19898;DHT22;10111;50.814;4.572;2022-08-21T15:26:48;25.10;99.90
19898;DHT22;10111;50.814;4.572;2022-08-21T15:29:14;25.10;99.90
19898;DHT22;10111;50.814;4.572;2022-08-21T15:32:17;25.20;99.90
19898;DHT22;10111;50.814;4.572;2022-08-21T15:34:43;25.20;99.90
19898;DHT22;10111;50.814;4.572;2022-08-21T15:37:09;25.10;99.90
19898;DHT22;10111;50.814;4.572;2022-08-21T15:39:35;25.00;99.90
19898;DHT22;10111;50.814;4.572;2022-08-21T15:42:02;25.10;99.90
19898;DHT22;10111;50.814;4.572;2022-08-21T15:44:28;25.00;99.90
19898;DHT22;10111;50.814;4.572;2022-08-21T15:46:55;25.00;99.90
19898;DHT22;10111;50.814;4.572;2022-08-21T15:49:21;24.90;99.90
19898;DHT22;10111;50.814;4.572;2022-08-21T15:51:47;25.00;99.90
19898;DHT22;10111;50.814;4.572;2022-08-21T15:54:13;25.00;99.90
19898;DHT22;10111;50.814;4.572;2022-08-21T15:56:40;24.90;99.90
19898;DHT22;10111;50.814;4.572;2022-08-21T15:59:13;25.00;99.90
19898;DHT22;10111;50.814;4.572;2022-08-21T16:01:39;24.90;99.90
19898;DHT22;10111;50.814;4.572;2022-08-21T16:04:05;24.80;99.90
19898;DHT22;10111;50.814;4.572;2022-08-21T16:06:31;24.80;99.90
19898;DHT22;10111;50.814;4.572;2022-08-21T16:08:58;24.70;99.90
19898;DHT22;10111;50.814;4.572;2022-08-21T16:11:23;24.70;99.90
19898;DHT22;10111;50.814;4.572;2022-08-21T16:13:49;24.70;99.90
19898;DHT22;10111;50.814;4.572;2022-08-21T16:16:21;24.60;99.90
19898;DHT22;10111;50.814;4.572;2022-08-21T16:18:49;24.60;99.90
19898;DHT22;10111;50.814;4.572;2022-08-21T16:21:16;24.60;99.90
19898;DHT22;10111;50.814;4.572;2022-08-21T16:23:42;24.70;99.90
19898;DHT22;10111;50.814;4.572;2022-08-21T16:26:09;24.60;99.90
19898;DHT22;10111;50.814;4.572;2022-08-21T16:28:37;24.60;99.90
19898;DHT22;10111;50.814;4.572;2022-08-21T16:31:04;24.60;99.90
19898;DHT22;10111;50.814;4.572;2022-08-21T16:33:38;24.60;99.90
19898;DHT22;10111;50.814;4.572;2022-08-21T16:36:05;24.60;99.90
19898;DHT22;10111;50.814;4.572;2022-08-21T16:38:31;24.50;99.90
19898;DHT22;10111;50.814;4.572;2022-08-21T16:40:58;24.40;99.90
19898;DHT22;10111;50.814;4.572;2022-08-21T16:43:27;24.40;99.90
19898;DHT22;10111;50.814;4.572;2022-08-21T16:45:55;24.30;99.90
19898;DHT22;10111;50.814;4.572;2022-08-21T16:48:22;24.30;99.90
19898;DHT22;10111;50.814;4.572;2022-08-21T16:50:48;24.20;99.90
19898;DHT22;10111;50.814;4.572;2022-08-21T16:53:14;24.10;99.90